sensor_id;sensor_type;location;lat;lon;timestamp;pressure;altitude;pressure_sealevel;temperature;humidity
69035;BME280;56091;55.756;37.412;2023-05-12T00:00:08;99597.31;;;10.27;63.56
69035;BME280;56091;55.756;37.412;2023-05-12T00:05:14;99615.81;;;10.35;64.03
69035;BME280;56091;55.756;37.412;2023-05-12T00:10:15;99613.16;;;10.23;63.21
69035;BME280;56091;55.756;37.412;2023-05-12T00:15:15;99624.28;;;10.27;63.45
69035;BME280;56091;55.756;37.412;2023-05-12T00:20:18;99604.88;;;10.13;64.44
69035;BME280;56091;55.756;37.412;2023-05-12T00:25:19;99616.50;;;10.13;64.96
69035;BME280;56091;55.756;37.412;2023-05-12T00:30:20;99605.31;;;10.05;62.80
69035;BME280;56091;55.756;37.412;2023-05-12T00:35:21;99602.13;;;10.08;63.71
69035;BME280;56091;55.756;37.412;2023-05-12T00:40:22;99599.91;;;10.05;63.17
69035;BME280;56091;55.756;37.412;2023-05-12T00:45:23;99594.03;;;9.91;63.15
69035;BME280;56091;55.756;37.412;2023-05-12T00:50:26;99607.59;;;9.96;64.71
69035;BME280;56091;55.756;37.412;2023-05-12T00:55:28;99601.19;;;9.85;64.69
69035;BME280;56091;55.756;37.412;2023-05-12T01:00:29;99598.16;;;9.82;65.09
69035;BME280;56091;55.756;37.412;2023-05-12T01:06:04;99602.97;;;9.80;64.26
69035;BME280;56091;55.756;37.412;2023-05-12T01:11:05;99595.03;;;9.73;63.85
69035;BME280;56091;55.756;37.412;2023-05-12T01:16:08;99604.19;;;9.72;63.78
69035;BME280;56091;55.756;37.412;2023-05-12T01:21:10;99533.91;;;9.28;63.91
69035;BME280;56091;55.756;37.412;2023-05-12T01:26:11;99595.09;;;9.61;64.26
69035;BME280;56091;55.756;37.412;2023-05-12T01:31:16;99586.66;;;9.57;64.80
69035;BME280;56091;55.756;37.412;2023-05-12T01:36:17;99594.19;;;9.55;63.04
69035;BME280;56091;55.756;37.412;2023-05-12T01:41:18;99587.59;;;9.63;62.39
69035;BME280;56091;55.756;37.412;2023-05-12T01:46:19;99590.38;;;9.68;62.61
69035;BME280;56091;55.756;37.412;2023-05-12T01:51:21;99586.38;;;9.71;60.86
69035;BME280;56091;55.756;37.412;2023-05-12T01:56:23;99591.41;;;9.79;61.69
69035;BME280;56091;55.756;37.412;2023-05-12T02:01:24;99595.47;;;9.82;59.36
69035;BME280;56091;55.756;37.412;2023-05-12T02:06:30;99595.63;;;9.92;58.50
69035;BME280;56091;55.756;37.412;2023-05-12T02:11:31;99594.94;;;9.96;58.41
69035;BME280;56091;55.756;37.412;2023-05-12T02:16:32;99595.97;;;9.95;58.72
69035;BME280;56091;55.756;37.412;2023-05-12T02:21:34;99601.06;;;10.09;58.08
69035;BME280;56091;55.756;37.412;2023-05-12T02:26:35;99591.59;;;10.06;58.15
69035;BME280;56091;55.756;37.412;2023-05-12T02:31:36;99598.94;;;10.11;57.59
69035;BME280;56091;55.756;37.412;2023-05-12T02:36:46;99599.50;;;10.30;57.48
69035;BME280;56091;55.756;37.412;2023-05-12T02:41:47;99602.91;;;10.37;57.15
69035;BME280;56091;55.756;37.412;2023-05-12T02:46:48;99598.31;;;10.54;57.25
69035;BME280;56091;55.756;37.412;2023-05-12T02:51:49;99603.13;;;10.35;57.85
69035;BME280;56091;55.756;37.412;2023-05-12T02:56:52;99612.19;;;10.29;57.21
69035;BME280;56091;55.756;37.412;2023-05-12T03:01:54;99602.16;;;10.25;57.22
69035;BME280;56091;55.756;37.412;2023-05-12T03:06:55;99614.50;;;10.38;56.68
69035;BME280;56091;55.756;37.412;2023-05-12T03:11:56;99620.06;;;10.48;56.15
69035;BME280;56091;55.756;37.412;2023-05-12T03:16:57;99614.25;;;10.56;56.16
69035;BME280;56091;55.756;37.412;2023-05-12T03:21:58;99612.03;;;10.70;55.19
69035;BME280;56091;55.756;37.412;2023-05-12T03:26:59;99612.09;;;10.75;55.35
69035;BME280;56091;55.756;37.412;2023-05-12T03:32:00;99584.63;;;10.78;55.44
69035;BME280;56091;55.756;37.412;2023-05-12T03:37:01;99605.88;;;10.91;54.94
69035;BME280;56091;55.756;37.412;2023-05-12T03:42:02;99616.34;;;10.88;54.57
69035;BME280;56091;55.756;37.412;2023-05-12T03:47:03;99608.25;;;10.88;54.56
69035;BME280;56091;55.756;37.412;2023-05-12T03:52:04;99590.16;;;10.88;55.18
69035;BME280;56091;55.756;37.412;2023-05-12T03:57:05;99614.97;;;11.07;54.63
69035;BME280;56091;55.756;37.412;2023-05-12T04:02:06;99613.56;;;11.22;54.12
69035;BME280;56091;55.756;37.412;2023-05-12T04:07:11;99615.47;;;11.26;54.25
69035;BME280;56091;55.756;37.412;2023-05-12T04:12:11;99603.25;;;11.41;52.76
69035;BME280;56091;55.756;37.412;2023-05-12T04:17:12;99602.22;;;11.69;52.67
69035;BME280;56091;55.756;37.412;2023-05-12T04:22:13;99597.19;;;12.05;52.15
69035;BME280;56091;55.756;37.412;2023-05-12T04:27:14;99581.03;;;12.15;51.36
69035;BME280;56091;55.756;37.412;2023-05-12T04:32:18;99582.81;;;12.32;50.28
69035;BME280;56091;55.756;37.412;2023-05-12T04:37:20;99593.38;;;12.38;50.70
69035;BME280;56091;55.756;37.412;2023-05-12T04:42:22;99604.91;;;12.23;51.01
69035;BME280;56091;55.756;37.412;2023-05-12T04:47:23;99598.50;;;12.35;51.11
69035;BME280;56091;55.756;37.412;2023-05-12T04:52:24;99592.59;;;12.38;51.56
69035;BME280;56091;55.756;37.412;2023-05-12T04:57:25;99601.09;;;12.57;50.46
69035;BME280;56091;55.756;37.412;2023-05-12T05:02:26;99598.38;;;12.99;49.07
69035;BME280;56091;55.756;37.412;2023-05-12T05:07:28;99595.38;;;13.48;47.07
69035;BME280;56091;55.756;37.412;2023-05-12T05:12:31;99596.53;;;13.89;45.39
69035;BME280;56091;55.756;37.412;2023-05-12T05:17:35;99603.63;;;14.10;44.53
69035;BME280;56091;55.756;37.412;2023-05-12T05:22:36;99591.97;;;14.20;46.21
69035;BME280;56091;55.756;37.412;2023-05-12T05:27:42;99600.94;;;14.31;46.79
69035;BME280;56091;55.756;37.412;2023-05-12T05:32:43;99605.78;;;14.34;47.71
69035;BME280;56091;55.756;37.412;2023-05-12T05:37:44;99603.63;;;14.46;48.15
69035;BME280;56091;55.756;37.412;2023-05-12T05:42:45;99597.69;;;14.64;47.33
69035;BME280;56091;55.756;37.412;2023-05-12T05:47:46;99600.34;;;14.90;47.11
69035;BME280;56091;55.756;37.412;2023-05-12T05:52:49;99593.72;;;15.22;45.67
69035;BME280;56091;55.756;37.412;2023-05-12T05:57:50;99594.72;;;15.41;43.97
69035;BME280;56091;55.756;37.412;2023-05-12T06:02:52;99597.31;;;15.67;43.02
69035;BME280;56091;55.756;37.412;2023-05-12T06:07:54;99602.09;;;15.86;43.31
69035;BME280;56091;55.756;37.412;2023-05-12T06:12:59;99600.94;;;15.97;42.42
69035;BME280;56091;55.756;37.412;2023-05-12T06:18:00;99608.19;;;16.12;41.04
69035;BME280;56091;55.756;37.412;2023-05-12T06:23:01;99599.13;;;16.22;40.26
69035;BME280;56091;55.756;37.412;2023-05-12T06:28:02;99598.06;;;16.23;39.79
69035;BME280;56091;55.756;37.412;2023-05-12T06:33:05;99600.16;;;16.31;39.16
69035;BME280;56091;55.756;37.412;2023-05-12T06:38:06;99605.47;;;16.46;38.89
69035;BME280;56091;55.756;37.412;2023-05-12T06:43:10;99597.91;;;16.67;37.93
69035;BME280;56091;55.756;37.412;2023-05-12T06:48:11;99597.53;;;16.79;36.47
69035;BME280;56091;55.756;37.412;2023-05-12T06:53:12;99602.44;;;16.82;36.02
69035;BME280;56091;55.756;37.412;2023-05-12T06:58:13;99587.34;;;16.90;35.92
69035;BME280;56091;55.756;37.412;2023-05-12T07:03:14;99585.16;;;17.16;35.66
69035;BME280;56091;55.756;37.412;2023-05-12T07:08:17;99586.16;;;17.25;35.04
69035;BME280;56091;55.756;37.412;2023-05-12T07:13:18;99570.53;;;17.31;34.73
69035;BME280;56091;55.756;37.412;2023-05-12T07:18:19;99590.09;;;17.57;34.77
69035;BME280;56091;55.756;37.412;2023-05-12T07:23:20;99578.25;;;17.67;32.20
69035;BME280;56091;55.756;37.412;2023-05-12T07:28:21;99575.25;;;17.87;33.27
69035;BME280;56091;55.756;37.412;2023-05-12T07:33:22;99580.50;;;18.17;31.87
69035;BME280;56091;55.756;37.412;2023-05-12T07:38:23;99574.97;;;18.22;30.64
69035;BME280;56091;55.756;37.412;2023-05-12T07:43:27;99578.13;;;18.29;29.68
69035;BME280;56091;55.756;37.412;2023-05-12T07:48:28;99572.28;;;18.36;28.36
69035;BME280;56091;55.756;37.412;2023-05-12T07:53:29;99572.94;;;18.60;28.28
69035;BME280;56091;55.756;37.412;2023-05-12T07:58:30;99574.59;;;18.75;27.56
69035;BME280;56091;55.756;37.412;2023-05-12T08:03:32;99569.34;;;18.92;27.38
69035;BME280;56091;55.756;37.412;2023-05-12T08:08:42;99565.91;;;19.15;26.70
69035;BME280;56091;55.756;37.412;2023-05-12T08:13:46;99567.41;;;19.35;26.10
69035;BME280;56091;55.756;37.412;2023-05-12T08:18:47;99529.91;;;19.49;25.61
69035;BME280;56091;55.756;37.412;2023-05-12T08:23:48;99559.09;;;19.90;24.84
69035;BME280;56091;55.756;37.412;2023-05-12T08:28:49;99561.38;;;20.42;23.82
69035;BME280;56091;55.756;37.412;2023-05-12T08:33:50;99551.44;;;20.77;23.16
69035;BME280;56091;55.756;37.412;2023-05-12T08:38:51;99551.34;;;21.00;23.02
69035;BME280;56091;55.756;37.412;2023-05-12T08:43:52;99549.91;;;21.02;22.75
69035;BME280;56091;55.756;37.412;2023-05-12T08:48:54;99550.13;;;21.23;22.56
69035;BME280;56091;55.756;37.412;2023-05-12T08:53:58;99541.44;;;21.39;22.65
69035;BME280;56091;55.756;37.412;2023-05-12T08:58:59;99523.81;;;21.14;22.11
69035;BME280;56091;55.756;37.412;2023-05-12T09:04:05;99531.44;;;21.43;21.89
69035;BME280;56091;55.756;37.412;2023-05-12T09:09:06;99533.25;;;21.74;22.16
69035;BME280;56091;55.756;37.412;2023-05-12T09:14:09;99527.59;;;22.05;21.58
69035;BME280;56091;55.756;37.412;2023-05-12T09:19:11;99518.19;;;22.15;21.16
69035;BME280;56091;55.756;37.412;2023-05-12T09:24:11;99522.22;;;22.35;20.93
69035;BME280;56091;55.756;37.412;2023-05-12T09:29:12;99512.41;;;21.81;21.42
69035;BME280;56091;55.756;37.412;2023-05-12T09:34:15;99509.69;;;21.64;21.81
69035;BME280;56091;55.756;37.412;2023-05-12T09:39:16;99529.38;;;21.66;21.89
69035;BME280;56091;55.756;37.412;2023-05-12T09:44:17;99524.38;;;21.59;21.86
69035;BME280;56091;55.756;37.412;2023-05-12T09:49:19;99508.03;;;21.37;22.30
69035;BME280;56091;55.756;37.412;2023-05-12T09:54:27;99516.13;;;21.51;22.45
69035;BME280;56091;55.756;37.412;2023-05-12T09:59:42;99504.75;;;22.31;21.88
69035;BME280;56091;55.756;37.412;2023-05-12T10:04:53;99490.63;;;22.50;20.85
69035;BME280;56091;55.756;37.412;2023-05-12T10:10:01;99501.88;;;22.10;21.70
69035;BME280;56091;55.756;37.412;2023-05-12T10:15:07;99507.75;;;21.56;21.86
69035;BME280;56091;55.756;37.412;2023-05-12T10:20:10;99505.31;;;21.54;21.80
69035;BME280;56091;55.756;37.412;2023-05-12T10:25:14;99501.63;;;21.76;22.02
69035;BME280;56091;55.756;37.412;2023-05-12T10:30:16;99515.50;;;21.71;21.83
69035;BME280;56091;55.756;37.412;2023-05-12T10:35:17;99508.38;;;21.70;22.13
69035;BME280;56091;55.756;37.412;2023-05-12T10:40:24;99501.75;;;21.36;22.06
69035;BME280;56091;55.756;37.412;2023-05-12T10:45:26;99499.50;;;21.47;22.17
69035;BME280;56091;55.756;37.412;2023-05-12T10:50:27;99508.69;;;21.42;22.85
69035;BME280;56091;55.756;37.412;2023-05-12T10:55:33;99514.97;;;21.43;22.65
69035;BME280;56091;55.756;37.412;2023-05-12T11:06:01;99501.88;;;21.22;21.91
69035;BME280;56091;55.756;37.412;2023-05-12T11:11:03;99516.34;;;20.97;21.68
69035;BME280;56091;55.756;37.412;2023-05-12T11:16:04;99495.13;;;21.29;22.18
69035;BME280;56091;55.756;37.412;2023-05-12T11:21:09;99504.84;;;21.61;22.31
69035;BME280;56091;55.756;37.412;2023-05-12T11:26:17;99504.78;;;22.22;21.77
69035;BME280;56091;55.756;37.412;2023-05-12T11:31:20;99497.34;;;22.14;19.99
69035;BME280;56091;55.756;37.412;2023-05-12T11:36:21;99495.19;;;22.46;20.12
69035;BME280;56091;55.756;37.412;2023-05-12T11:41:24;99471.06;;;22.90;20.03
69035;BME280;56091;55.756;37.412;2023-05-12T11:46:26;99471.31;;;23.48;19.61
69035;BME280;56091;55.756;37.412;2023-05-12T11:51:27;99480.78;;;23.59;19.47
69035;BME280;56091;55.756;37.412;2023-05-12T11:56:29;99475.28;;;23.80;19.08
69035;BME280;56091;55.756;37.412;2023-05-12T12:01:30;99473.63;;;24.00;19.16
69035;BME280;56091;55.756;37.412;2023-05-12T12:06:42;99461.69;;;23.96;19.18
69035;BME280;56091;55.756;37.412;2023-05-12T12:11:46;99474.59;;;23.62;19.41
69035;BME280;56091;55.756;37.412;2023-05-12T12:16:46;99465.06;;;23.17;19.99
69035;BME280;56091;55.756;37.412;2023-05-12T12:21:47;99463.00;;;22.85;19.93
69035;BME280;56091;55.756;37.412;2023-05-12T12:26:48;99461.13;;;23.27;19.87
69035;BME280;56091;55.756;37.412;2023-05-12T12:31:50;99460.25;;;23.56;19.78
69035;BME280;56091;55.756;37.412;2023-05-12T12:36:51;99463.38;;;24.46;18.91
69035;BME280;56091;55.756;37.412;2023-05-12T12:41:52;99467.47;;;23.61;19.60
69035;BME280;56091;55.756;37.412;2023-05-12T12:46:53;99453.91;;;24.10;19.14
69035;BME280;56091;55.756;37.412;2023-05-12T12:51:54;99442.88;;;23.77;19.87
69035;BME280;56091;55.756;37.412;2023-05-12T12:56:55;99446.34;;;23.53;19.84
69035;BME280;56091;55.756;37.412;2023-05-12T13:01:56;99282.47;;;22.47;19.81
69035;BME280;56091;55.756;37.412;2023-05-12T13:06:59;99433.38;;;23.53;20.09
69035;BME280;56091;55.756;37.412;2023-05-12T13:12:00;99420.25;;;23.92;19.42
69035;BME280;56091;55.756;37.412;2023-05-12T13:17:01;99441.38;;;24.01;19.53
69035;BME280;56091;55.756;37.412;2023-05-12T13:22:02;99433.56;;;23.69;19.37
69035;BME280;56091;55.756;37.412;2023-05-12T13:27:03;99422.00;;;23.22;20.51
69035;BME280;56091;55.756;37.412;2023-05-12T13:32:08;99414.34;;;23.06;20.77
69035;BME280;56091;55.756;37.412;2023-05-12T13:37:11;99427.97;;;23.78;20.10
69035;BME280;56091;55.756;37.412;2023-05-12T13:42:12;99427.59;;;26.56;17.61
69035;BME280;56091;55.756;37.412;2023-05-12T13:47:14;99418.41;;;30.43;13.65
69035;BME280;56091;55.756;37.412;2023-05-12T13:52:15;99408.78;;;31.84;12.71
69035;BME280;56091;55.756;37.412;2023-05-12T13:57:15;99422.72;;;32.99;11.42
69035;BME280;56091;55.756;37.412;2023-05-12T14:02:16;99412.28;;;31.48;12.38
69035;BME280;56091;55.756;37.412;2023-05-12T14:07:17;99407.63;;;30.38;13.18
69035;BME280;56091;55.756;37.412;2023-05-12T14:12:18;99415.00;;;27.69;15.63
69035;BME280;56091;55.756;37.412;2023-05-12T14:17:19;99396.31;;;25.20;17.87
69035;BME280;56091;55.756;37.412;2023-05-12T14:22:23;99397.78;;;25.86;17.59
69035;BME280;56091;55.756;37.412;2023-05-12T14:27:27;99410.47;;;29.29;14.86
69035;BME280;56091;55.756;37.412;2023-05-12T14:32:34;99408.84;;;29.96;13.68
69035;BME280;56091;55.756;37.412;2023-05-12T14:37:35;99412.19;;;31.34;12.90
69035;BME280;56091;55.756;37.412;2023-05-12T14:42:36;99414.44;;;32.23;11.57
69035;BME280;56091;55.756;37.412;2023-05-12T14:47:37;99389.47;;;31.21;12.81
69035;BME280;56091;55.756;37.412;2023-05-12T14:52:38;99397.91;;;30.66;13.65
69035;BME280;56091;55.756;37.412;2023-05-12T14:57:40;99391.66;;;31.89;12.11
69035;BME280;56091;55.756;37.412;2023-05-12T15:02:42;99393.97;;;33.09;11.41
69035;BME280;56091;55.756;37.412;2023-05-12T15:07:43;99391.56;;;33.18;11.21
69035;BME280;56091;55.756;37.412;2023-05-12T15:12:50;99386.38;;;33.02;11.18
69035;BME280;56091;55.756;37.412;2023-05-12T15:17:51;99393.25;;;31.83;11.73
69035;BME280;56091;55.756;37.412;2023-05-12T15:22:52;99397.72;;;31.00;12.30
69035;BME280;56091;55.756;37.412;2023-05-12T15:27:59;99382.56;;;32.06;11.88
69035;BME280;56091;55.756;37.412;2023-05-12T15:33:01;99384.13;;;32.40;11.51
69035;BME280;56091;55.756;37.412;2023-05-12T15:38:05;99384.53;;;32.27;11.34
69035;BME280;56091;55.756;37.412;2023-05-12T15:43:06;99365.19;;;30.48;12.43
69035;BME280;56091;55.756;37.412;2023-05-12T15:48:07;99379.34;;;26.89;14.90
69035;BME280;56091;55.756;37.412;2023-05-12T15:53:09;99372.31;;;24.67;16.41
69035;BME280;56091;55.756;37.412;2023-05-12T15:58:10;99397.28;;;23.67;18.09
69035;BME280;56091;55.756;37.412;2023-05-12T16:03:11;99394.81;;;23.20;18.57
69035;BME280;56091;55.756;37.412;2023-05-12T16:08:12;99369.91;;;22.74;18.71
69035;BME280;56091;55.756;37.412;2023-05-12T16:13:14;99369.16;;;22.65;19.38
69035;BME280;56091;55.756;37.412;2023-05-12T16:18:14;99393.94;;;22.27;19.78
69035;BME280;56091;55.756;37.412;2023-05-12T16:23:15;99384.94;;;22.09;20.20
69035;BME280;56091;55.756;37.412;2023-05-12T16:28:16;99393.72;;;21.84;20.60
69035;BME280;56091;55.756;37.412;2023-05-12T16:33:17;99387.50;;;21.58;20.96
69035;BME280;56091;55.756;37.412;2023-05-12T16:38:18;99392.97;;;21.49;21.33
69035;BME280;56091;55.756;37.412;2023-05-12T16:43:20;99402.16;;;21.36;22.00
69035;BME280;56091;55.756;37.412;2023-05-12T16:48:21;99404.75;;;21.15;22.38
69035;BME280;56091;55.756;37.412;2023-05-12T16:53:21;99407.00;;;20.95;22.28
69035;BME280;56091;55.756;37.412;2023-05-12T16:58:23;99402.44;;;20.73;22.62
69035;BME280;56091;55.756;37.412;2023-05-12T17:03:24;99338.44;;;20.12;22.58
69035;BME280;56091;55.756;37.412;2023-05-12T17:08:25;99415.53;;;20.36;23.22
69035;BME280;56091;55.756;37.412;2023-05-12T17:13:26;99414.34;;;20.20;23.79
69035;BME280;56091;55.756;37.412;2023-05-12T17:18:27;99418.28;;;20.05;23.79
69035;BME280;56091;55.756;37.412;2023-05-12T17:23:27;99421.22;;;19.77;23.73
69035;BME280;56091;55.756;37.412;2023-05-12T17:28:29;99427.75;;;19.54;24.13
69035;BME280;56091;55.756;37.412;2023-05-12T17:33:29;99431.00;;;19.33;22.64
69035;BME280;56091;55.756;37.412;2023-05-12T17:38:30;99439.44;;;19.23;23.16
69035;BME280;56091;55.756;37.412;2023-05-12T17:43:31;99432.47;;;19.17;23.17
69035;BME280;56091;55.756;37.412;2023-05-12T17:48:32;99433.31;;;19.03;23.17
69035;BME280;56091;55.756;37.412;2023-05-12T17:53:33;99433.16;;;18.86;22.74
69035;BME280;56091;55.756;37.412;2023-05-12T17:58:34;99428.47;;;18.72;22.74
69035;BME280;56091;55.756;37.412;2023-05-12T18:03:35;99431.91;;;18.64;22.95
69035;BME280;56091;55.756;37.412;2023-05-12T18:08:36;99428.97;;;18.47;23.06
69035;BME280;56091;55.756;37.412;2023-05-12T18:13:37;99429.59;;;18.30;23.58
69035;BME280;56091;55.756;37.412;2023-05-12T18:18:40;99434.53;;;18.14;24.25
69035;BME280;56091;55.756;37.412;2023-05-12T18:23:41;99440.16;;;18.04;24.61
69035;BME280;56091;55.756;37.412;2023-05-12T18:28:42;99439.34;;;17.89;25.02
69035;BME280;56091;55.756;37.412;2023-05-12T18:33:45;99444.50;;;17.72;25.63
69035;BME280;56091;55.756;37.412;2023-05-12T18:38:47;99452.38;;;17.73;25.84
69035;BME280;56091;55.756;37.412;2023-05-12T18:43:47;99445.53;;;17.76;25.55
69035;BME280;56091;55.756;37.412;2023-05-12T18:48:49;99452.56;;;17.63;26.45
69035;BME280;56091;55.756;37.412;2023-05-12T18:53:54;99444.63;;;17.48;27.69
69035;BME280;56091;55.756;37.412;2023-05-12T18:58:57;99439.13;;;17.34;27.70
69035;BME280;56091;55.756;37.412;2023-05-12T19:03:59;99449.34;;;17.23;28.28
69035;BME280;56091;55.756;37.412;2023-05-12T19:09:00;99448.66;;;17.12;27.90
69035;BME280;56091;55.756;37.412;2023-05-12T19:14:00;99447.94;;;17.07;27.35
69035;BME280;56091;55.756;37.412;2023-05-12T19:19:04;99447.06;;;17.11;26.77
69035;BME280;56091;55.756;37.412;2023-05-12T19:24:05;99444.34;;;17.11;26.80
69035;BME280;56091;55.756;37.412;2023-05-12T19:29:06;99448.66;;;17.12;26.25
69035;BME280;56091;55.756;37.412;2023-05-12T19:34:07;99417.66;;;16.89;26.92
69035;BME280;56091;55.756;37.412;2023-05-12T19:39:08;99444.09;;;16.89;27.69
69035;BME280;56091;55.756;37.412;2023-05-12T19:44:10;99442.81;;;16.81;27.53
69035;BME280;56091;55.756;37.412;2023-05-12T19:49:11;99445.94;;;16.69;28.04
69035;BME280;56091;55.756;37.412;2023-05-12T19:54:17;99448.25;;;16.57;27.89
69035;BME280;56091;55.756;37.412;2023-05-12T19:59:18;99442.13;;;16.46;27.94
69035;BME280;56091;55.756;37.412;2023-05-12T20:04:18;99440.59;;;16.35;28.74
69035;BME280;56091;55.756;37.412;2023-05-12T20:09:20;99443.22;;;16.21;28.62
69035;BME280;56091;55.756;37.412;2023-05-12T20:14:22;99442.94;;;16.23;28.44
69035;BME280;56091;55.756;37.412;2023-05-12T20:19:23;99440.22;;;16.23;28.11
69035;BME280;56091;55.756;37.412;2023-05-12T20:24:27;99423.69;;;16.14;28.41
69035;BME280;56091;55.756;37.412;2023-05-12T20:29:28;99446.75;;;16.22;28.54
69035;BME280;56091;55.756;37.412;2023-05-12T20:34:32;99440.00;;;16.14;28.38
69035;BME280;56091;55.756;37.412;2023-05-12T20:39:33;99440.88;;;16.09;28.51
69035;BME280;56091;55.756;37.412;2023-05-12T20:44:35;99444.16;;;16.06;28.54
69035;BME280;56091;55.756;37.412;2023-05-12T20:49:36;99453.72;;;16.04;28.67
69035;BME280;56091;55.756;37.412;2023-05-12T20:54:36;99452.75;;;15.89;29.98
69035;BME280;56091;55.756;37.412;2023-05-12T20:59:38;99448.28;;;15.69;30.64
69035;BME280;56091;55.756;37.412;2023-05-12T21:04:38;99444.63;;;15.50;30.41
69035;BME280;56091;55.756;37.412;2023-05-12T21:09:39;99453.41;;;15.36;30.53
69035;BME280;56091;55.756;37.412;2023-05-12T21:14:42;99429.63;;;15.18;30.52
69035;BME280;56091;55.756;37.412;2023-05-12T21:19:43;99445.94;;;15.18;30.97
69035;BME280;56091;55.756;37.412;2023-05-12T21:24:45;99449.56;;;15.03;31.22
69035;BME280;56091;55.756;37.412;2023-05-12T21:29:46;99456.66;;;14.94;31.29
69035;BME280;56091;55.756;37.412;2023-05-12T21:34:49;99447.72;;;14.83;31.55
69035;BME280;56091;55.756;37.412;2023-05-12T21:39:50;99450.50;;;14.78;31.70
69035;BME280;56091;55.756;37.412;2023-05-12T21:44:51;99431.00;;;14.60;32.33
69035;BME280;56091;55.756;37.412;2023-05-12T21:49:56;99446.47;;;14.60;32.32
69035;BME280;56091;55.756;37.412;2023-05-12T21:54:56;99444.31;;;14.57;32.54
69035;BME280;56091;55.756;37.412;2023-05-12T21:59:59;99439.16;;;14.55;32.76
69035;BME280;56091;55.756;37.412;2023-05-12T22:05:11;99452.72;;;14.45;33.32
69035;BME280;56091;55.756;37.412;2023-05-12T22:10:12;99456.56;;;14.39;33.37
69035;BME280;56091;55.756;37.412;2023-05-12T22:15:12;99455.75;;;14.33;33.79
69035;BME280;56091;55.756;37.412;2023-05-12T22:20:14;99448.72;;;14.27;34.12
69035;BME280;56091;55.756;37.412;2023-05-12T22:25:16;99440.91;;;14.05;34.59
69035;BME280;56091;55.756;37.412;2023-05-12T22:30:17;99451.47;;;14.06;35.02
69035;BME280;56091;55.756;37.412;2023-05-12T22:35:18;99451.19;;;13.98;35.17
69035;BME280;56091;55.756;37.412;2023-05-12T22:40:19;99456.09;;;13.85;35.58
69035;BME280;56091;55.756;37.412;2023-05-12T22:45:21;99456.38;;;13.79;36.11
69035;BME280;56091;55.756;37.412;2023-05-12T22:50:22;99457.19;;;13.69;36.28
69035;BME280;56091;55.756;37.412;2023-05-12T22:55:26;99448.25;;;13.53;36.83
69035;BME280;56091;55.756;37.412;2023-05-12T23:00:30;99451.22;;;13.52;36.98
69035;BME280;56091;55.756;37.412;2023-05-12T23:05:31;99456.91;;;13.45;37.16
69035;BME280;56091;55.756;37.412;2023-05-12T23:10:31;99445.19;;;13.29;37.57
69035;BME280;56091;55.756;37.412;2023-05-12T23:15:32;99456.59;;;13.31;37.90
69035;BME280;56091;55.756;37.412;2023-05-12T23:20:33;99441.63;;;13.08;38.23
69035;BME280;56091;55.756;37.412;2023-05-12T23:25:34;99461.13;;;13.10;38.99
69035;BME280;56091;55.756;37.412;2023-05-12T23:30:36;99441.59;;;12.93;39.14
69035;BME280;56091;55.756;37.412;2023-05-12T23:35:37;99457.03;;;12.92;39.39
69035;BME280;56091;55.756;37.412;2023-05-12T23:40:38;99450.78;;;12.86;39.32
69035;BME280;56091;55.756;37.412;2023-05-12T23:45:38;99450.50;;;12.88;39.16
69035;BME280;56091;55.756;37.412;2023-05-12T23:50:39;99462.41;;;12.82;39.63
69035;BME280;56091;55.756;37.412;2023-05-12T23:55:40;99395.66;;;12.40;39.94
